sensor_id;sensor_type;location;lat;lon;timestamp;pressure;altitude;pressure_sealevel;temperature;humidity
61554;BME280;47425;51.976;5.326;2024-01-30T00:01:16;102462.34;;;16.00;46.57
61554;BME280;47425;51.976;5.326;2024-01-30T00:03:43;102473.75;;;16.00;46.78
61554;BME280;47425;51.976;5.326;2024-01-30T00:06:11;102470.28;;;15.98;46.78
61554;BME280;47425;51.976;5.326;2024-01-30T00:08:37;102468.50;;;15.99;46.68
61554;BME280;47425;51.976;5.326;2024-01-30T00:11:04;102465.88;;;15.99;46.84
61554;BME280;47425;51.976;5.326;2024-01-30T00:13:32;102453.59;;;15.94;46.89
61554;BME280;47425;51.976;5.326;2024-01-30T00:15:59;102464.13;;;15.96;46.67
61554;BME280;47425;51.976;5.326;2024-01-30T00:18:26;102456.31;;;15.91;46.59
61554;BME280;47425;51.976;5.326;2024-01-30T00:20:53;102458.03;;;15.94;46.66
61554;BME280;47425;51.976;5.326;2024-01-30T00:23:21;102453.78;;;15.84;46.81
61554;BME280;47425;51.976;5.326;2024-01-30T00:25:48;102453.66;;;15.91;46.91
61554;BME280;47425;51.976;5.326;2024-01-30T00:28:14;102454.56;;;15.90;46.95
61554;BME280;47425;51.976;5.326;2024-01-30T00:30:42;102462.44;;;15.92;46.86
61554;BME280;47425;51.976;5.326;2024-01-30T00:33:09;102459.81;;;15.92;46.73
61554;BME280;47425;51.976;5.326;2024-01-30T00:35:37;102452.88;;;15.86;46.73
61554;BME280;47425;51.976;5.326;2024-01-30T00:38:03;102444.09;;;15.83;46.86
61554;BME280;47425;51.976;5.326;2024-01-30T00:40:32;102446.69;;;15.86;46.74
61554;BME280;47425;51.976;5.326;2024-01-30T00:42:58;102438.84;;;15.80;47.08
61554;BME280;47425;51.976;5.326;2024-01-30T00:45:25;102436.28;;;15.76;47.14
61554;BME280;47425;51.976;5.326;2024-01-30T00:47:54;102431.91;;;15.74;47.14
61554;BME280;47425;51.976;5.326;2024-01-30T00:50:21;102437.09;;;15.80;47.15
61554;BME280;47425;51.976;5.326;2024-01-30T00:52:48;102438.84;;;15.81;47.09
61554;BME280;47425;51.976;5.326;2024-01-30T00:55:14;102443.28;;;15.81;46.97
61554;BME280;47425;51.976;5.326;2024-01-30T00:57:41;102445.03;;;15.78;47.20
61554;BME280;47425;51.976;5.326;2024-01-30T01:00:08;102439.72;;;15.82;47.18
61554;BME280;47425;51.976;5.326;2024-01-30T01:02:36;102451.13;;;15.85;46.93
61554;BME280;47425;51.976;5.326;2024-01-30T01:05:06;102447.66;;;15.83;47.13
61554;BME280;47425;51.976;5.326;2024-01-30T01:07:33;102447.63;;;15.85;47.32
61554;BME280;47425;51.976;5.326;2024-01-30T01:10:00;102445.84;;;15.85;47.07
61554;BME280;47425;51.976;5.326;2024-01-30T01:12:27;102443.19;;;15.85;47.27
61554;BME280;47425;51.976;5.326;2024-01-30T01:14:55;102440.56;;;15.85;47.30
61554;BME280;47425;51.976;5.326;2024-01-30T01:17:22;102435.31;;;15.82;47.17
61554;BME280;47425;51.976;5.326;2024-01-30T01:19:48;102432.72;;;15.81;47.07
61554;BME280;47425;51.976;5.326;2024-01-30T01:22:17;102432.72;;;15.81;47.23
61554;BME280;47425;51.976;5.326;2024-01-30T01:24:43;102430.03;;;15.82;47.10
61554;BME280;47425;51.976;5.326;2024-01-30T01:27:11;102422.16;;;15.77;47.21
61554;BME280;47425;51.976;5.326;2024-01-30T01:29:38;102425.69;;;15.78;47.51
61554;BME280;47425;51.976;5.326;2024-01-30T01:32:05;102411.69;;;15.71;47.53
61554;BME280;47425;51.976;5.326;2024-01-30T01:34:32;102412.50;;;15.76;47.36
61554;BME280;47425;51.976;5.326;2024-01-30T01:36:59;102417.91;;;15.69;47.59
61554;BME280;47425;51.976;5.326;2024-01-30T01:39:28;102416.34;;;15.55;47.75
61554;BME280;47425;51.976;5.326;2024-01-30T01:41:55;102415.44;;;15.58;47.79
61554;BME280;47425;51.976;5.326;2024-01-30T01:44:21;102418.88;;;15.63;47.79
61554;BME280;47425;51.976;5.326;2024-01-30T01:46:48;102413.53;;;15.66;47.76
61554;BME280;47425;51.976;5.326;2024-01-30T01:49:15;102407.38;;;15.67;47.68
61554;BME280;47425;51.976;5.326;2024-01-30T01:51:44;102409.91;;;15.72;47.81
61554;BME280;47425;51.976;5.326;2024-01-30T01:54:11;102412.50;;;15.75;47.62
61554;BME280;47425;51.976;5.326;2024-01-30T01:56:40;102408.09;;;15.75;47.57
61554;BME280;47425;51.976;5.326;2024-01-30T01:59:08;102409.09;;;15.70;47.71
61554;BME280;47425;51.976;5.326;2024-01-30T02:01:36;102410.94;;;15.65;47.63
61554;BME280;47425;51.976;5.326;2024-01-30T02:04:04;102409.22;;;15.62;47.50
61554;BME280;47425;51.976;5.326;2024-01-30T02:06:31;102414.56;;;15.57;47.53
61554;BME280;47425;51.976;5.326;2024-01-30T02:08:58;102400.63;;;15.48;48.14
61554;BME280;47425;51.976;5.326;2024-01-30T02:11:24;102406.78;;;15.50;48.35
61554;BME280;47425;51.976;5.326;2024-01-30T02:13:52;102409.41;;;15.48;48.35
61554;BME280;47425;51.976;5.326;2024-01-30T02:16:19;102405.88;;;15.49;48.23
61554;BME280;47425;51.976;5.326;2024-01-30T02:18:46;102404.13;;;15.50;48.16
61554;BME280;47425;51.976;5.326;2024-01-30T02:21:15;102405.00;;;15.50;48.15
61554;BME280;47425;51.976;5.326;2024-01-30T02:23:43;102398.84;;;15.48;48.06
61554;BME280;47425;51.976;5.326;2024-01-30T02:26:09;102402.28;;;15.53;48.35
61554;BME280;47425;51.976;5.326;2024-01-30T02:28:36;102409.25;;;15.59;47.72
61554;BME280;47425;51.976;5.326;2024-01-30T02:31:04;102408.41;;;15.57;48.14
61554;BME280;47425;51.976;5.326;2024-01-30T02:33:31;102401.38;;;15.56;48.32
61554;BME280;47425;51.976;5.326;2024-01-30T02:35:58;102407.56;;;15.56;48.28
61554;BME280;47425;51.976;5.326;2024-01-30T02:38:26;102404.75;;;15.64;48.12
61554;BME280;47425;51.976;5.326;2024-01-30T02:40:54;102397.75;;;15.63;47.63
61554;BME280;47425;51.976;5.326;2024-01-30T02:43:22;102392.50;;;15.60;47.81
61554;BME280;47425;51.976;5.326;2024-01-30T02:45:48;102391.69;;;15.58;47.90
61554;BME280;47425;51.976;5.326;2024-01-30T02:48:15;102383.69;;;15.61;47.90
61554;BME280;47425;51.976;5.326;2024-01-30T02:50:42;102383.63;;;15.64;48.19
61554;BME280;47425;51.976;5.326;2024-01-30T02:53:09;102381.03;;;15.63;47.94
61554;BME280;47425;51.976;5.326;2024-01-30T02:55:38;102381.16;;;15.56;47.61
61554;BME280;47425;51.976;5.326;2024-01-30T02:58:05;102384.72;;;15.54;48.11
61554;BME280;47425;51.976;5.326;2024-01-30T03:00:32;102376.75;;;15.55;48.27
61554;BME280;47425;51.976;5.326;2024-01-30T03:03:00;102382.84;;;15.60;48.27
61554;BME280;47425;51.976;5.326;2024-01-30T03:05:27;102378.41;;;15.61;48.19
61554;BME280;47425;51.976;5.326;2024-01-30T03:07:55;102374.88;;;15.62;48.12
61554;BME280;47425;51.976;5.326;2024-01-30T03:10:21;102371.34;;;15.63;47.90
61554;BME280;47425;51.976;5.326;2024-01-30T03:12:49;102362.47;;;15.66;47.81
61554;BME280;47425;51.976;5.326;2024-01-30T03:15:16;102362.53;;;15.63;48.08
61554;BME280;47425;51.976;5.326;2024-01-30T03:17:43;102347.72;;;15.55;48.17
61554;BME280;47425;51.976;5.326;2024-01-30T03:20:11;102356.41;;;15.62;48.00
61554;BME280;47425;51.976;5.326;2024-01-30T03:22:38;102352.81;;;15.66;48.04
61554;BME280;47425;51.976;5.326;2024-01-30T03:25:05;102358.09;;;15.66;48.07
61554;BME280;47425;51.976;5.326;2024-01-30T03:27:31;102359.75;;;15.72;48.02
61554;BME280;47425;51.976;5.326;2024-01-30T03:29:59;102359.72;;;15.73;47.97
61554;BME280;47425;51.976;5.326;2024-01-30T03:32:27;102346.47;;;15.76;47.74
61554;BME280;47425;51.976;5.326;2024-01-30T03:34:54;102347.38;;;15.74;47.76
61554;BME280;47425;51.976;5.326;2024-01-30T03:37:20;102350.03;;;15.74;47.77
61554;BME280;47425;51.976;5.326;2024-01-30T03:39:47;102346.47;;;15.76;47.60
61554;BME280;47425;51.976;5.326;2024-01-30T03:42:14;102345.53;;;15.77;47.60
61554;BME280;47425;51.976;5.326;2024-01-30T03:44:42;102354.31;;;15.80;48.00
61554;BME280;47425;51.976;5.326;2024-01-30T03:47:10;102351.69;;;15.80;47.75
61554;BME280;47425;51.976;5.326;2024-01-30T03:49:37;102351.66;;;15.83;47.95
61554;BME280;47425;51.976;5.326;2024-01-30T03:52:04;102341.13;;;15.80;47.47
61554;BME280;47425;51.976;5.326;2024-01-30T03:54:30;102343.72;;;15.83;47.90
61554;BME280;47425;51.976;5.326;2024-01-30T03:56:58;102346.34;;;15.84;47.50
61554;BME280;47425;51.976;5.326;2024-01-30T03:59:25;102337.56;;;15.84;47.70
61554;BME280;47425;51.976;5.326;2024-01-30T04:01:52;102342.81;;;15.85;47.57
61554;BME280;47425;51.976;5.326;2024-01-30T04:04:20;102353.41;;;15.84;47.72
61554;BME280;47425;51.976;5.326;2024-01-30T04:06:47;102359.53;;;15.84;47.88
61554;BME280;47425;51.976;5.326;2024-01-30T04:09:15;102350.78;;;15.79;47.76
61554;BME280;47425;51.976;5.326;2024-01-30T04:11:42;102356.94;;;15.83;47.65
61554;BME280;47425;51.976;5.326;2024-01-30T04:14:08;102356.09;;;15.81;47.68
61554;BME280;47425;51.976;5.326;2024-01-30T04:16:35;102353.47;;;15.81;47.94
61554;BME280;47425;51.976;5.326;2024-01-30T04:19:02;102346.41;;;15.81;47.87
61554;BME280;47425;51.976;5.326;2024-01-30T04:21:31;102343.75;;;15.81;47.75
61554;BME280;47425;51.976;5.326;2024-01-30T04:23:58;102346.34;;;15.84;47.63
61554;BME280;47425;51.976;5.326;2024-01-30T04:26:25;102341.94;;;15.85;47.82
61554;BME280;47425;51.976;5.326;2024-01-30T04:28:51;102338.38;;;15.86;47.78
61554;BME280;47425;51.976;5.326;2024-01-30T04:31:18;102326.06;;;15.86;47.76
61554;BME280;47425;51.976;5.326;2024-01-30T04:33:44;102319.88;;;15.87;47.60
61554;BME280;47425;51.976;5.326;2024-01-30T04:36:11;102328.66;;;15.88;47.95
61554;BME280;47425;51.976;5.326;2024-01-30T04:38:39;102323.38;;;15.88;47.58
61554;BME280;47425;51.976;5.326;2024-01-30T04:41:05;102328.63;;;15.89;47.79
61554;BME280;47425;51.976;5.326;2024-01-30T04:43:32;102331.28;;;15.89;47.82
61554;BME280;47425;51.976;5.326;2024-01-30T04:46:01;102329.53;;;15.88;47.67
61554;BME280;47425;51.976;5.326;2024-01-30T04:48:29;102321.56;;;15.90;47.76
61554;BME280;47425;51.976;5.326;2024-01-30T04:50:56;102326.03;;;15.88;47.69
61554;BME280;47425;51.976;5.326;2024-01-30T04:53:22;102329.59;;;15.85;47.74
61554;BME280;47425;51.976;5.326;2024-01-30T04:55:50;102337.47;;;15.87;47.60
61554;BME280;47425;51.976;5.326;2024-01-30T04:58:17;102331.28;;;15.89;47.79
61554;BME280;47425;51.976;5.326;2024-01-30T05:00:45;102322.53;;;15.87;47.74
61554;BME280;47425;51.976;5.326;2024-01-30T05:03:18;102328.63;;;15.89;47.59
61554;BME280;47425;51.976;5.326;2024-01-30T05:05:45;102333.91;;;15.89;47.71
61554;BME280;47425;51.976;5.326;2024-01-30T05:08:11;102328.59;;;15.91;47.42
61554;BME280;47425;51.976;5.326;2024-01-30T05:10:38;102318.03;;;15.91;47.78
61554;BME280;47425;51.976;5.326;2024-01-30T05:13:07;102326.84;;;15.91;47.46
61554;BME280;47425;51.976;5.326;2024-01-30T05:15:34;102318.00;;;15.92;47.43
61554;BME280;47425;51.976;5.326;2024-01-30T05:18:01;102321.53;;;15.93;47.66
61554;BME280;47425;51.976;5.326;2024-01-30T05:20:27;102315.34;;;15.92;47.30
61554;BME280;47425;51.976;5.326;2024-01-30T05:22:54;102314.53;;;15.90;47.52
61554;BME280;47425;51.976;5.326;2024-01-30T05:25:24;102324.22;;;15.91;47.56
61554;BME280;47425;51.976;5.326;2024-01-30T05:27:51;102311.00;;;15.91;47.65
61554;BME280;47425;51.976;5.326;2024-01-30T05:30:19;102320.63;;;15.92;47.50
61554;BME280;47425;51.976;5.326;2024-01-30T05:32:46;102321.53;;;15.93;47.60
61554;BME280;47425;51.976;5.326;2024-01-30T05:35:14;102317.13;;;15.92;47.70
61554;BME280;47425;51.976;5.326;2024-01-30T05:37:40;102316.25;;;15.93;47.39
61554;BME280;47425;51.976;5.326;2024-01-30T05:40:08;102309.25;;;15.90;47.66
61554;BME280;47425;51.976;5.326;2024-01-30T05:42:35;102303.97;;;15.90;47.65
61554;BME280;47425;51.976;5.326;2024-01-30T05:45:02;102305.75;;;15.88;47.30
61554;BME280;47425;51.976;5.326;2024-01-30T05:47:29;102320.63;;;15.94;47.64
61554;BME280;47425;51.976;5.326;2024-01-30T05:49:57;102321.50;;;15.94;47.58
61554;BME280;47425;51.976;5.326;2024-01-30T05:52:24;102325.91;;;15.94;47.62
61554;BME280;47425;51.976;5.326;2024-01-30T05:54:51;102319.72;;;15.95;47.61
61554;BME280;47425;51.976;5.326;2024-01-30T05:57:17;102307.50;;;15.89;47.55
61554;BME280;47425;51.976;5.326;2024-01-30T05:59:44;102316.22;;;15.94;47.35
61554;BME280;47425;51.976;5.326;2024-01-30T06:02:14;102318.81;;;15.96;47.71
61554;BME280;47425;51.976;5.326;2024-01-30T06:04:42;102326.75;;;15.96;47.25
61554;BME280;47425;51.976;5.326;2024-01-30T06:07:09;102324.09;;;15.96;47.50
61554;BME280;47425;51.976;5.326;2024-01-30T06:09:36;102323.25;;;15.96;47.56
61554;BME280;47425;51.976;5.326;2024-01-30T06:12:04;102325.88;;;15.96;47.48
61554;BME280;47425;51.976;5.326;2024-01-30T06:14:32;102334.47;;;16.07;47.22
61554;BME280;47425;51.976;5.326;2024-01-30T06:16:59;102323.94;;;16.05;47.14
61554;BME280;47425;51.976;5.326;2024-01-30T06:19:25;102324.03;;;16.01;47.15
61554;BME280;47425;51.976;5.326;2024-01-30T06:21:53;102329.31;;;15.99;47.54
61554;BME280;47425;51.976;5.326;2024-01-30T06:24:20;102323.22;;;15.97;47.43
61554;BME280;47425;51.976;5.326;2024-01-30T06:26:46;102327.59;;;15.98;47.25
61554;BME280;47425;51.976;5.326;2024-01-30T06:29:13;102339.88;;;15.99;47.52
61554;BME280;47425;51.976;5.326;2024-01-30T06:31:42;102333.75;;;15.99;47.40
61554;BME280;47425;51.976;5.326;2024-01-30T06:34:08;102339.88;;;15.99;47.49
61554;BME280;47425;51.976;5.326;2024-01-30T06:36:36;102338.16;;;15.98;47.47
61554;BME280;47425;51.976;5.326;2024-01-30T06:39:04;102328.44;;;16.00;47.50
61554;BME280;47425;51.976;5.326;2024-01-30T06:41:33;102338.13;;;16.00;47.55
61554;BME280;47425;51.976;5.326;2024-01-30T06:44:01;102339.88;;;15.99;47.35
61554;BME280;47425;51.976;5.326;2024-01-30T06:46:28;102340.78;;;16.00;47.19
61554;BME280;47425;51.976;5.326;2024-01-30T06:48:55;102344.31;;;15.99;47.41
61554;BME280;47425;51.976;5.326;2024-01-30T06:51:22;102339.00;;;16.00;47.11
61554;BME280;47425;51.976;5.326;2024-01-30T06:53:50;102345.22;;;15.98;47.14
61554;BME280;47425;51.976;5.326;2024-01-30T06:56:18;102348.75;;;15.98;47.38
61554;BME280;47425;51.976;5.326;2024-01-30T06:58:46;102346.09;;;15.98;47.41
61554;BME280;47425;51.976;5.326;2024-01-30T07:01:13;102348.91;;;15.89;47.21
61554;BME280;47425;51.976;5.326;2024-01-30T07:03:39;102353.44;;;15.82;47.71
61554;BME280;47425;51.976;5.326;2024-01-30T07:06:07;102348.16;;;15.82;47.88
61554;BME280;47425;51.976;5.326;2024-01-30T07:08:49;102347.25;;;15.83;47.56
61554;BME280;47425;51.976;5.326;2024-01-30T07:11:19;102354.31;;;15.80;47.90
61554;BME280;47425;51.976;5.326;2024-01-30T07:13:47;102349.00;;;15.83;47.79
61554;BME280;47425;51.976;5.326;2024-01-30T07:16:13;102354.22;;;15.86;47.60
61554;BME280;47425;51.976;5.326;2024-01-30T07:18:40;102352.50;;;15.85;47.42
61554;BME280;47425;51.976;5.326;2024-01-30T07:21:08;102369.22;;;15.85;47.74
61554;BME280;47425;51.976;5.326;2024-01-30T07:23:35;102355.13;;;15.86;47.82
61554;BME280;47425;51.976;5.326;2024-01-30T07:26:04;102357.69;;;15.89;47.87
61554;BME280;47425;51.976;5.326;2024-01-30T07:28:33;102363.06;;;15.85;48.09
61554;BME280;47425;51.976;5.326;2024-01-30T07:30:59;102363.09;;;15.83;48.18
61554;BME280;47425;51.976;5.326;2024-01-30T07:33:28;102363.91;;;15.87;47.76
61554;BME280;47425;51.976;5.326;2024-01-30T07:35:54;102366.50;;;15.88;48.16
61554;BME280;47425;51.976;5.326;2024-01-30T07:38:21;102378.75;;;15.92;48.06
61554;BME280;47425;51.976;5.326;2024-01-30T07:40:48;102379.56;;;15.98;48.22
61554;BME280;47425;51.976;5.326;2024-01-30T07:43:14;102377.81;;;15.98;48.32
61554;BME280;47425;51.976;5.326;2024-01-30T07:45:44;102377.81;;;15.98;48.02
61554;BME280;47425;51.976;5.326;2024-01-30T07:48:10;102381.56;;;15.85;48.53
61554;BME280;47425;51.976;5.326;2024-01-30T07:50:37;102387.69;;;15.87;48.32
61554;BME280;47425;51.976;5.326;2024-01-30T07:53:04;102345.66;;;15.71;48.62
61554;BME280;47425;51.976;5.326;2024-01-30T07:55:30;102391.97;;;15.92;48.56
61554;BME280;47425;51.976;5.326;2024-01-30T07:57:59;102399.00;;;15.93;48.71
61554;BME280;47425;51.976;5.326;2024-01-30T08:00:26;102403.41;;;15.94;48.54
61554;BME280;47425;51.976;5.326;2024-01-30T08:02:55;102398.94;;;15.98;48.61
61554;BME280;47425;51.976;5.326;2024-01-30T08:05:22;102402.41;;;16.00;48.78
61554;BME280;47425;51.976;5.326;2024-01-30T08:07:49;102398.84;;;16.03;48.49
61554;BME280;47425;51.976;5.326;2024-01-30T08:10:17;102393.59;;;16.01;48.69
61554;BME280;47425;51.976;5.326;2024-01-30T08:12:44;102397.16;;;15.99;48.98
61554;BME280;47425;51.976;5.326;2024-01-30T08:15:11;102393.78;;;15.90;49.26
61554;BME280;47425;51.976;5.326;2024-01-30T08:17:38;102398.34;;;15.82;49.37
61554;BME280;47425;51.976;5.326;2024-01-30T08:20:08;102388.56;;;15.86;49.56
61554;BME280;47425;51.976;5.326;2024-01-30T08:22:38;102394.78;;;15.85;49.64
61554;BME280;47425;51.976;5.326;2024-01-30T08:25:06;102384.09;;;15.91;49.46
61554;BME280;47425;51.976;5.326;2024-01-30T08:27:33;102399.91;;;15.94;49.73
61554;BME280;47425;51.976;5.326;2024-01-30T08:30:01;102388.38;;;15.98;49.66
61554;BME280;47425;51.976;5.326;2024-01-30T08:32:28;102384.75;;;16.04;49.25
61554;BME280;47425;51.976;5.326;2024-01-30T08:34:56;102391.75;;;16.06;49.26
61554;BME280;47425;51.976;5.326;2024-01-30T08:37:24;102374.25;;;16.01;49.39
61554;BME280;47425;51.976;5.326;2024-01-30T08:39:51;102393.44;;;16.10;49.49
61554;BME280;47425;51.976;5.326;2024-01-30T08:42:18;102387.31;;;16.07;49.63
61554;BME280;47425;51.976;5.326;2024-01-30T08:44:47;102397.00;;;16.08;49.49
61554;BME280;47425;51.976;5.326;2024-01-30T08:47:15;102395.22;;;16.08;49.67
61554;BME280;47425;51.976;5.326;2024-01-30T08:49:43;102390.81;;;16.09;49.72
61554;BME280;47425;51.976;5.326;2024-01-30T08:52:09;102397.81;;;16.12;49.48
61554;BME280;47425;51.976;5.326;2024-01-30T08:54:38;102400.41;;;16.15;49.74
61554;BME280;47425;51.976;5.326;2024-01-30T08:57:05;102396.84;;;16.16;49.75
61554;BME280;47425;51.976;5.326;2024-01-30T08:59:31;102399.53;;;16.13;49.70
61554;BME280;47425;51.976;5.326;2024-01-30T09:02:00;102396.03;;;16.12;49.92
61554;BME280;47425;51.976;5.326;2024-01-30T09:04:27;102405.75;;;16.12;49.84
61554;BME280;47425;51.976;5.326;2024-01-30T09:06:54;102401.25;;;16.15;49.89
61554;BME280;47425;51.976;5.326;2024-01-30T09:09:21;102405.75;;;16.12;49.84
61554;BME280;47425;51.976;5.326;2024-01-30T09:11:50;102407.53;;;16.09;50.04
61554;BME280;47425;51.976;5.326;2024-01-30T09:14:18;102416.22;;;16.16;49.86
61554;BME280;47425;51.976;5.326;2024-01-30T09:16:44;102404.78;;;16.16;50.13
61554;BME280;47425;51.976;5.326;2024-01-30T09:19:11;102409.16;;;16.17;49.94
61554;BME280;47425;51.976;5.326;2024-01-30T09:21:38;102417.06;;;16.18;50.01
61554;BME280;47425;51.976;5.326;2024-01-30T09:24:05;102416.19;;;16.18;49.84
61554;BME280;47425;51.976;5.326;2024-01-30T09:26:34;102416.22;;;16.16;49.79
61554;BME280;47425;51.976;5.326;2024-01-30T09:29:02;102420.56;;;16.19;50.03
61554;BME280;47425;51.976;5.326;2024-01-30T09:31:28;102417.06;;;16.18;49.78
61554;BME280;47425;51.976;5.326;2024-01-30T09:33:55;102422.41;;;16.15;49.97
61554;BME280;47425;51.976;5.326;2024-01-30T09:36:22;102419.81;;;16.12;50.08
61554;BME280;47425;51.976;5.326;2024-01-30T09:38:49;102416.31;;;16.12;50.02
61554;BME280;47425;51.976;5.326;2024-01-30T09:41:18;102418.03;;;16.13;50.33
61554;BME280;47425;51.976;5.326;2024-01-30T09:43:47;102431.28;;;16.11;50.14
61554;BME280;47425;51.976;5.326;2024-01-30T09:46:17;102422.56;;;16.06;50.06
61554;BME280;47425;51.976;5.326;2024-01-30T09:48:46;102435.72;;;16.10;50.26
61554;BME280;47425;51.976;5.326;2024-01-30T09:51:14;102434.81;;;16.12;50.16
61554;BME280;47425;51.976;5.326;2024-01-30T09:53:42;102445.28;;;16.16;50.09
61554;BME280;47425;51.976;5.326;2024-01-30T09:56:09;102440.94;;;16.14;50.04
61554;BME280;47425;51.976;5.326;2024-01-30T09:58:36;102450.53;;;16.18;50.11
61554;BME280;47425;51.976;5.326;2024-01-30T10:01:05;102440.09;;;16.10;50.01
61554;BME280;47425;51.976;5.326;2024-01-30T10:03:35;102440.97;;;16.12;50.00
61554;BME280;47425;51.976;5.326;2024-01-30T10:06:02;102453.44;;;16.04;50.09
61554;BME280;47425;51.976;5.326;2024-01-30T10:08:29;102444.53;;;16.09;49.99
61554;BME280;47425;51.976;5.326;2024-01-30T10:10:56;102444.53;;;16.09;49.91
61554;BME280;47425;51.976;5.326;2024-01-30T10:13:23;102446.34;;;16.07;50.29
61554;BME280;47425;51.976;5.326;2024-01-30T10:15:50;102446.25;;;16.12;50.08
61554;BME280;47425;51.976;5.326;2024-01-30T10:18:20;102436.47;;;16.17;49.88
61554;BME280;47425;51.976;5.326;2024-01-30T10:20:48;102454.16;;;16.14;50.01
61554;BME280;47425;51.976;5.326;2024-01-30T10:23:14;102443.53;;;16.15;49.95
61554;BME280;47425;51.976;5.326;2024-01-30T10:25:42;102453.97;;;16.23;49.69
61554;BME280;47425;51.976;5.326;2024-01-30T10:28:09;102436.31;;;16.26;49.75
61554;BME280;47425;51.976;5.326;2024-01-30T10:30:40;102427.50;;;16.24;49.76
61554;BME280;47425;51.976;5.326;2024-01-30T10:33:09;102444.91;;;16.36;49.37
61554;BME280;47425;51.976;5.326;2024-01-30T10:35:37;102450.22;;;16.36;49.37
61554;BME280;47425;51.976;5.326;2024-01-30T10:38:06;102449.28;;;16.39;49.39
61554;BME280;47425;51.976;5.326;2024-01-30T10:40:36;102441.34;;;16.39;49.38
61554;BME280;47425;51.976;5.326;2024-01-30T10:43:06;102436.06;;;16.39;49.44
61554;BME280;47425;51.976;5.326;2024-01-30T10:45:57;102443.13;;;16.37;49.43
61554;BME280;47425;51.976;5.326;2024-01-30T10:48:30;102461.78;;;16.31;49.34
61554;BME280;47425;51.976;5.326;2024-01-30T10:50:59;102453.34;;;16.08;49.99
61554;BME280;47425;51.976;5.326;2024-01-30T10:53:28;102456.06;;;16.05;50.16
61554;BME280;47425;51.976;5.326;2024-01-30T10:55:58;102457.00;;;16.01;49.90
61554;BME280;47425;51.976;5.326;2024-01-30T10:58:27;102459.59;;;16.04;49.96
61554;BME280;47425;51.976;5.326;2024-01-30T11:00:54;102465.84;;;16.00;50.32
61554;BME280;47425;51.976;5.326;2024-01-30T11:03:21;102472.78;;;16.06;50.06
61554;BME280;47425;51.976;5.326;2024-01-30T11:05:49;102472.81;;;16.04;50.04
61554;BME280;47425;51.976;5.326;2024-01-30T11:08:23;102464.00;;;16.05;50.08
61554;BME280;47425;51.976;5.326;2024-01-30T11:10:56;102472.75;;;16.09;49.90
61554;BME280;47425;51.976;5.326;2024-01-30T11:13:27;102470.16;;;16.04;49.72
61554;BME280;47425;51.976;5.326;2024-01-30T11:15:54;102465.97;;;15.92;50.25
61554;BME280;47425;51.976;5.326;2024-01-30T11:18:24;102459.97;;;15.83;50.17
61554;BME280;47425;51.976;5.326;2024-01-30T11:20:52;102463.41;;;15.88;50.51
61554;BME280;47425;51.976;5.326;2024-01-30T11:23:22;102476.53;;;15.92;50.01
61554;BME280;47425;51.976;5.326;2024-01-30T11:25:49;102463.41;;;15.88;50.29
61554;BME280;47425;51.976;5.326;2024-01-30T11:28:17;102459.03;;;15.85;50.29
61554;BME280;47425;51.976;5.326;2024-01-30T11:30:44;102468.72;;;15.86;50.19
61554;BME280;47425;51.976;5.326;2024-01-30T11:33:14;102477.22;;;16.04;49.77
61554;BME280;47425;51.976;5.326;2024-01-30T11:35:42;102468.59;;;15.92;49.79
61554;BME280;47425;51.976;5.326;2024-01-30T11:38:10;102469.50;;;15.93;49.77
61554;BME280;47425;51.976;5.326;2024-01-30T11:40:40;102470.69;;;15.70;49.70
61554;BME280;47425;51.976;5.326;2024-01-30T11:43:08;102476.38;;;15.44;50.81
61554;BME280;47425;51.976;5.326;2024-01-30T11:45:41;102470.44;;;15.28;51.19
61554;BME280;47425;51.976;5.326;2024-01-30T11:48:20;102483.81;;;15.14;51.47
61554;BME280;47425;51.976;5.326;2024-01-30T11:50:48;102490.00;;;15.12;51.49
61554;BME280;47425;51.976;5.326;2024-01-30T11:53:17;102495.16;;;15.21;51.72
61554;BME280;47425;51.976;5.326;2024-01-30T11:55:49;102502.94;;;15.32;51.71
61554;BME280;47425;51.976;5.326;2024-01-30T11:58:16;102499.19;;;15.48;50.98
61554;BME280;47425;51.976;5.326;2024-01-30T12:00:54;102504.50;;;15.45;50.87
61554;BME280;47425;51.976;5.326;2024-01-30T12:03:22;102497.53;;;15.41;50.82
61554;BME280;47425;51.976;5.326;2024-01-30T12:05:55;102507.16;;;15.45;50.50
61554;BME280;47425;51.976;5.326;2024-01-30T12:08:21;102503.63;;;15.46;50.86
61554;BME280;47425;51.976;5.326;2024-01-30T12:10:55;102514.13;;;15.49;50.63
61554;BME280;47425;51.976;5.326;2024-01-30T12:13:22;102505.25;;;15.55;51.04
61554;BME280;47425;51.976;5.326;2024-01-30T12:15:50;102508.72;;;15.58;50.97
61554;BME280;47425;51.976;5.326;2024-01-30T12:18:19;102518.25;;;15.70;50.32
61554;BME280;47425;51.976;5.326;2024-01-30T12:20:56;102523.19;;;15.31;50.67
61554;BME280;47425;51.976;5.326;2024-01-30T12:23:23;102525.59;;;15.48;51.76
61554;BME280;47425;51.976;5.326;2024-01-30T12:25:51;102527.13;;;15.65;51.55
61554;BME280;47425;51.976;5.326;2024-01-30T12:28:19;102535.91;;;15.67;50.78
61554;BME280;47425;51.976;5.326;2024-01-30T12:30:46;102534.22;;;15.61;51.63
61554;BME280;47425;51.976;5.326;2024-01-30T12:33:16;102549.22;;;15.57;50.98
61554;BME280;47425;51.976;5.326;2024-01-30T12:35:47;102548.63;;;15.37;51.51
61554;BME280;47425;51.976;5.326;2024-01-30T12:38:14;102558.59;;;15.16;51.84
61554;BME280;47425;51.976;5.326;2024-01-30T12:40:42;102556.19;;;14.96;52.10
61554;BME280;47425;51.976;5.326;2024-01-30T12:43:08;102564.16;;;14.90;52.69
61554;BME280;47425;51.976;5.326;2024-01-30T12:45:36;102562.94;;;15.17;51.84
61554;BME280;47425;51.976;5.326;2024-01-30T12:48:03;102570.88;;;15.16;51.96
61554;BME280;47425;51.976;5.326;2024-01-30T12:50:30;102557.91;;;14.97;51.27
61554;BME280;47425;51.976;5.326;2024-01-30T12:52:59;102568.72;;;14.74;52.34